Aho, North Carolina
Current Conditions -  °F | °C
As of 9:55 AM on Friday 19 Dec 2014 (Local Time) from KTNB Reporting Station
Broken Clouds Broken Clouds  
Wind Chill: 28°   Ceiling: 3200
Heat Index: 34°   Visibility: 10mi
Dew Point: 18°   Wind: 8mph
Humidity: 51%   Direction: 300°WNW
Pressure: 30.12"   Gusts: NA
Location:  36.0473°N, 81.8148°W
Report Text: KTNB 191455Z AUTO 30007KT 10SM BKN032 01/M08 A3012 RMK AO2 T00131078
Loading
Personal Weather Stations






























Interactive Weather Map New forecast layout! Learn more

10-Day Weather Forecast

Advertisements
Track Severe Weather on mobile